sensor_id;sensor_type;location;lat;lon;timestamp;temperature;humidity
78876;DHT22;68253;52.506;5.486;2024-01-27T00:01:51;4.50;71.60
78876;DHT22;68253;52.506;5.486;2024-01-27T00:04:17;4.50;71.60
78876;DHT22;68253;52.506;5.486;2024-01-27T00:06:43;4.50;71.60
78876;DHT22;68253;52.506;5.486;2024-01-27T00:09:10;4.50;71.60
78876;DHT22;68253;52.506;5.486;2024-01-27T00:11:36;4.40;71.50
78876;DHT22;68253;52.506;5.486;2024-01-27T00:14:02;4.40;71.60
78876;DHT22;68253;52.506;5.486;2024-01-27T00:16:29;4.30;71.80
78876;DHT22;68253;52.506;5.486;2024-01-27T00:18:55;4.30;71.80
78876;DHT22;68253;52.506;5.486;2024-01-27T00:21:21;4.30;71.90
78876;DHT22;68253;52.506;5.486;2024-01-27T00:23:47;4.30;72.00
78876;DHT22;68253;52.506;5.486;2024-01-27T00:26:13;4.20;72.10
78876;DHT22;68253;52.506;5.486;2024-01-27T00:28:39;4.20;72.20
78876;DHT22;68253;52.506;5.486;2024-01-27T00:31:05;4.20;72.20
78876;DHT22;68253;52.506;5.486;2024-01-27T00:33:31;4.10;72.30
78876;DHT22;68253;52.506;5.486;2024-01-27T00:35:57;4.10;72.40
78876;DHT22;68253;52.506;5.486;2024-01-27T00:38:23;4.10;72.50
78876;DHT22;68253;52.506;5.486;2024-01-27T00:40:50;4.00;72.60
78876;DHT22;68253;52.506;5.486;2024-01-27T00:43:16;4.00;72.70
78876;DHT22;68253;52.506;5.486;2024-01-27T00:45:42;3.90;72.80
78876;DHT22;68253;52.506;5.486;2024-01-27T00:48:08;3.90;72.90
78876;DHT22;68253;52.506;5.486;2024-01-27T00:50:34;3.90;72.90
78876;DHT22;68253;52.506;5.486;2024-01-27T00:53:00;3.90;73.00
78876;DHT22;68253;52.506;5.486;2024-01-27T00:55:26;3.90;73.10
78876;DHT22;68253;52.506;5.486;2024-01-27T00:57:52;3.90;73.20
78876;DHT22;68253;52.506;5.486;2024-01-27T01:00:19;3.80;73.30
78876;DHT22;68253;52.506;5.486;2024-01-27T01:02:45;3.80;73.40
78876;DHT22;68253;52.506;5.486;2024-01-27T01:05:13;3.80;73.50
78876;DHT22;68253;52.506;5.486;2024-01-27T01:07:39;3.80;73.60
78876;DHT22;68253;52.506;5.486;2024-01-27T01:10:06;3.80;73.60
78876;DHT22;68253;52.506;5.486;2024-01-27T01:12:32;3.90;73.60
78876;DHT22;68253;52.506;5.486;2024-01-27T01:14:59;3.80;73.80
78876;DHT22;68253;52.506;5.486;2024-01-27T01:17:25;3.90;73.80
78876;DHT22;68253;52.506;5.486;2024-01-27T01:19:51;3.90;73.80
78876;DHT22;68253;52.506;5.486;2024-01-27T01:22:17;3.90;73.80
78876;DHT22;68253;52.506;5.486;2024-01-27T01:24:43;3.90;73.80
78876;DHT22;68253;52.506;5.486;2024-01-27T01:27:09;3.90;74.00
78876;DHT22;68253;52.506;5.486;2024-01-27T01:29:35;3.90;74.10
78876;DHT22;68253;52.506;5.486;2024-01-27T01:32:01;3.90;74.10
78876;DHT22;68253;52.506;5.486;2024-01-27T01:34:28;3.90;74.20
78876;DHT22;68253;52.506;5.486;2024-01-27T01:36:55;3.90;74.30
78876;DHT22;68253;52.506;5.486;2024-01-27T01:39:23;3.90;74.30
78876;DHT22;68253;52.506;5.486;2024-01-27T01:41:49;3.90;74.40
78876;DHT22;68253;52.506;5.486;2024-01-27T01:44:15;3.90;74.40
78876;DHT22;68253;52.506;5.486;2024-01-27T01:46:42;3.90;74.40
78876;DHT22;68253;52.506;5.486;2024-01-27T01:49:08;3.90;74.40
78876;DHT22;68253;52.506;5.486;2024-01-27T01:51:34;3.90;74.40
78876;DHT22;68253;52.506;5.486;2024-01-27T01:54:01;3.80;74.40
78876;DHT22;68253;52.506;5.486;2024-01-27T01:56:28;3.70;74.50
78876;DHT22;68253;52.506;5.486;2024-01-27T01:58:54;3.70;74.60
78876;DHT22;68253;52.506;5.486;2024-01-27T02:01:21;3.70;74.70
78876;DHT22;68253;52.506;5.486;2024-01-27T02:03:54;3.70;74.80
78876;DHT22;68253;52.506;5.486;2024-01-27T02:06:20;3.70;74.80
78876;DHT22;68253;52.506;5.486;2024-01-27T02:08:47;3.70;74.80
78876;DHT22;68253;52.506;5.486;2024-01-27T02:11:13;3.70;74.80
78876;DHT22;68253;52.506;5.486;2024-01-27T02:13:39;3.70;74.80
78876;DHT22;68253;52.506;5.486;2024-01-27T02:16:06;3.70;74.90
78876;DHT22;68253;52.506;5.486;2024-01-27T02:18:32;3.70;74.90
78876;DHT22;68253;52.506;5.486;2024-01-27T02:20:58;3.70;75.00
78876;DHT22;68253;52.506;5.486;2024-01-27T02:23:24;3.70;75.00
78876;DHT22;68253;52.506;5.486;2024-01-27T02:25:50;3.70;75.10
78876;DHT22;68253;52.506;5.486;2024-01-27T02:28:17;3.70;75.10
78876;DHT22;68253;52.506;5.486;2024-01-27T02:30:43;3.70;75.20
78876;DHT22;68253;52.506;5.486;2024-01-27T02:33:09;3.70;75.20
78876;DHT22;68253;52.506;5.486;2024-01-27T02:35:36;3.70;75.20
78876;DHT22;68253;52.506;5.486;2024-01-27T02:38:02;3.70;75.10
78876;DHT22;68253;52.506;5.486;2024-01-27T02:40:28;3.80;75.20
78876;DHT22;68253;52.506;5.486;2024-01-27T02:42:54;3.70;75.20
78876;DHT22;68253;52.506;5.486;2024-01-27T02:45:20;3.70;75.20
78876;DHT22;68253;52.506;5.486;2024-01-27T02:47:46;3.70;75.30
78876;DHT22;68253;52.506;5.486;2024-01-27T02:50:13;3.70;75.40
78876;DHT22;68253;52.506;5.486;2024-01-27T02:52:39;3.70;75.40
78876;DHT22;68253;52.506;5.486;2024-01-27T02:55:05;3.70;75.40
78876;DHT22;68253;52.506;5.486;2024-01-27T02:57:31;3.70;75.40
78876;DHT22;68253;52.506;5.486;2024-01-27T02:59:57;3.70;75.40
78876;DHT22;68253;52.506;5.486;2024-01-27T03:02:24;3.70;75.40
78876;DHT22;68253;52.506;5.486;2024-01-27T03:04:50;3.70;75.40
78876;DHT22;68253;52.506;5.486;2024-01-27T03:07:16;3.70;75.50
78876;DHT22;68253;52.506;5.486;2024-01-27T03:09:42;3.70;75.60
78876;DHT22;68253;52.506;5.486;2024-01-27T03:12:08;3.60;75.70
78876;DHT22;68253;52.506;5.486;2024-01-27T03:14:34;3.60;75.70
78876;DHT22;68253;52.506;5.486;2024-01-27T03:17:00;3.60;75.70
78876;DHT22;68253;52.506;5.486;2024-01-27T03:19:27;3.60;75.60
78876;DHT22;68253;52.506;5.486;2024-01-27T03:21:53;3.50;75.70
78876;DHT22;68253;52.506;5.486;2024-01-27T03:24:19;3.50;75.70
78876;DHT22;68253;52.506;5.486;2024-01-27T03:26:45;3.50;75.70
78876;DHT22;68253;52.506;5.486;2024-01-27T03:29:11;3.50;75.80
78876;DHT22;68253;52.506;5.486;2024-01-27T03:31:37;3.50;75.80
78876;DHT22;68253;52.506;5.486;2024-01-27T03:34:03;3.50;75.90
78876;DHT22;68253;52.506;5.486;2024-01-27T03:36:29;3.50;76.00
78876;DHT22;68253;52.506;5.486;2024-01-27T03:38:57;3.50;76.10
78876;DHT22;68253;52.506;5.486;2024-01-27T03:41:23;3.50;76.20
78876;DHT22;68253;52.506;5.486;2024-01-27T03:43:50;3.50;76.20
78876;DHT22;68253;52.506;5.486;2024-01-27T03:46:16;3.50;76.20
78876;DHT22;68253;52.506;5.486;2024-01-27T03:48:42;3.50;76.20
78876;DHT22;68253;52.506;5.486;2024-01-27T03:51:08;3.50;76.20
78876;DHT22;68253;52.506;5.486;2024-01-27T03:53:34;3.50;76.20
78876;DHT22;68253;52.506;5.486;2024-01-27T03:56:01;3.50;76.30
78876;DHT22;68253;52.506;5.486;2024-01-27T03:58:30;3.50;76.40
78876;DHT22;68253;52.506;5.486;2024-01-27T04:00:57;3.40;76.40
78876;DHT22;68253;52.506;5.486;2024-01-27T04:03:23;3.40;76.40
78876;DHT22;68253;52.506;5.486;2024-01-27T04:05:49;3.40;76.40
78876;DHT22;68253;52.506;5.486;2024-01-27T04:08:15;3.50;76.40
78876;DHT22;68253;52.506;5.486;2024-01-27T04:10:42;3.40;76.50
78876;DHT22;68253;52.506;5.486;2024-01-27T04:13:08;3.30;76.50
78876;DHT22;68253;52.506;5.486;2024-01-27T04:15:34;3.40;76.50
78876;DHT22;68253;52.506;5.486;2024-01-27T04:18:04;3.30;76.60
78876;DHT22;68253;52.506;5.486;2024-01-27T04:20:31;3.30;76.60
78876;DHT22;68253;52.506;5.486;2024-01-27T04:22:57;3.30;76.80
78876;DHT22;68253;52.506;5.486;2024-01-27T04:25:23;3.30;76.80
78876;DHT22;68253;52.506;5.486;2024-01-27T04:27:49;3.30;76.80
78876;DHT22;68253;52.506;5.486;2024-01-27T04:30:16;3.30;76.80
78876;DHT22;68253;52.506;5.486;2024-01-27T04:32:42;3.30;76.80
78876;DHT22;68253;52.506;5.486;2024-01-27T04:35:11;3.30;76.80
78876;DHT22;68253;52.506;5.486;2024-01-27T04:37:38;3.30;76.80
78876;DHT22;68253;52.506;5.486;2024-01-27T04:40:05;3.20;76.80
78876;DHT22;68253;52.506;5.486;2024-01-27T04:42:34;3.20;76.80
78876;DHT22;68253;52.506;5.486;2024-01-27T04:45:01;3.20;76.70
78876;DHT22;68253;52.506;5.486;2024-01-27T04:47:27;3.10;76.70
78876;DHT22;68253;52.506;5.486;2024-01-27T04:49:54;3.10;76.70
78876;DHT22;68253;52.506;5.486;2024-01-27T04:52:20;3.10;76.70
78876;DHT22;68253;52.506;5.486;2024-01-27T04:54:47;3.10;76.80
78876;DHT22;68253;52.506;5.486;2024-01-27T04:57:13;3.10;76.80
78876;DHT22;68253;52.506;5.486;2024-01-27T04:59:39;3.10;76.80
78876;DHT22;68253;52.506;5.486;2024-01-27T05:02:05;3.10;76.80
78876;DHT22;68253;52.506;5.486;2024-01-27T05:04:31;3.00;76.80
78876;DHT22;68253;52.506;5.486;2024-01-27T05:06:57;3.00;76.90
78876;DHT22;68253;52.506;5.486;2024-01-27T05:09:23;3.00;77.00
78876;DHT22;68253;52.506;5.486;2024-01-27T05:11:50;2.90;77.00
78876;DHT22;68253;52.506;5.486;2024-01-27T05:14:19;2.90;77.00
78876;DHT22;68253;52.506;5.486;2024-01-27T05:16:45;2.90;77.00
78876;DHT22;68253;52.506;5.486;2024-01-27T05:19:11;2.90;77.10
78876;DHT22;68253;52.506;5.486;2024-01-27T05:21:38;2.90;77.10
78876;DHT22;68253;52.506;5.486;2024-01-27T05:24:04;2.90;77.10
78876;DHT22;68253;52.506;5.486;2024-01-27T05:26:30;2.90;77.10
78876;DHT22;68253;52.506;5.486;2024-01-27T05:28:57;2.90;77.20
78876;DHT22;68253;52.506;5.486;2024-01-27T05:31:23;2.90;77.20
78876;DHT22;68253;52.506;5.486;2024-01-27T05:33:49;2.90;77.20
78876;DHT22;68253;52.506;5.486;2024-01-27T05:36:15;2.90;77.30
78876;DHT22;68253;52.506;5.486;2024-01-27T05:38:42;2.90;77.30
78876;DHT22;68253;52.506;5.486;2024-01-27T05:41:08;2.90;77.50
78876;DHT22;68253;52.506;5.486;2024-01-27T05:43:34;2.90;77.40
78876;DHT22;68253;52.506;5.486;2024-01-27T05:46:00;2.90;77.40
78876;DHT22;68253;52.506;5.486;2024-01-27T05:48:26;2.90;77.50
78876;DHT22;68253;52.506;5.486;2024-01-27T05:53:22;2.90;77.60
78876;DHT22;68253;52.506;5.486;2024-01-27T05:55:49;2.90;77.60
78876;DHT22;68253;52.506;5.486;2024-01-27T05:58:15;2.90;77.60
78876;DHT22;68253;52.506;5.486;2024-01-27T06:00:44;2.90;77.60
78876;DHT22;68253;52.506;5.486;2024-01-27T06:03:10;2.90;77.60
78876;DHT22;68253;52.506;5.486;2024-01-27T06:05:37;2.90;77.60
78876;DHT22;68253;52.506;5.486;2024-01-27T06:08:05;2.80;77.70
78876;DHT22;68253;52.506;5.486;2024-01-27T06:10:31;2.80;77.80
78876;DHT22;68253;52.506;5.486;2024-01-27T06:12:57;2.80;77.80
78876;DHT22;68253;52.506;5.486;2024-01-27T06:15:23;2.80;77.90
78876;DHT22;68253;52.506;5.486;2024-01-27T06:17:50;2.80;77.90
78876;DHT22;68253;52.506;5.486;2024-01-27T06:20:16;2.80;78.00
78876;DHT22;68253;52.506;5.486;2024-01-27T06:22:44;2.80;78.10
78876;DHT22;68253;52.506;5.486;2024-01-27T06:25:10;2.80;78.30
78876;DHT22;68253;52.506;5.486;2024-01-27T06:27:37;2.80;78.30
78876;DHT22;68253;52.506;5.486;2024-01-27T06:30:08;2.80;78.30
78876;DHT22;68253;52.506;5.486;2024-01-27T06:32:36;2.80;78.30
78876;DHT22;68253;52.506;5.486;2024-01-27T06:35:02;2.80;78.30
78876;DHT22;68253;52.506;5.486;2024-01-27T06:37:29;2.80;78.30
78876;DHT22;68253;52.506;5.486;2024-01-27T06:39:55;2.80;78.40
78876;DHT22;68253;52.506;5.486;2024-01-27T06:42:21;2.80;78.40
78876;DHT22;68253;52.506;5.486;2024-01-27T06:44:47;2.90;78.40
78876;DHT22;68253;52.506;5.486;2024-01-27T06:47:13;2.80;78.40
78876;DHT22;68253;52.506;5.486;2024-01-27T06:49:40;2.90;78.30
78876;DHT22;68253;52.506;5.486;2024-01-27T06:52:06;2.90;78.30
78876;DHT22;68253;52.506;5.486;2024-01-27T06:54:32;2.90;78.30
78876;DHT22;68253;52.506;5.486;2024-01-27T06:57:01;2.90;78.30
78876;DHT22;68253;52.506;5.486;2024-01-27T06:59:27;2.90;78.30
78876;DHT22;68253;52.506;5.486;2024-01-27T07:01:53;2.90;78.20
78876;DHT22;68253;52.506;5.486;2024-01-27T07:04:20;2.90;78.30
78876;DHT22;68253;52.506;5.486;2024-01-27T07:06:46;2.90;78.30
78876;DHT22;68253;52.506;5.486;2024-01-27T07:09:12;2.90;78.20
78876;DHT22;68253;52.506;5.486;2024-01-27T07:11:38;2.90;78.20
78876;DHT22;68253;52.506;5.486;2024-01-27T07:14:04;2.90;78.20
78876;DHT22;68253;52.506;5.486;2024-01-27T07:16:32;2.90;78.10
78876;DHT22;68253;52.506;5.486;2024-01-27T07:18:59;2.90;78.20
78876;DHT22;68253;52.506;5.486;2024-01-27T07:21:26;2.90;78.10
78876;DHT22;68253;52.506;5.486;2024-01-27T07:23:54;2.90;78.20
78876;DHT22;68253;52.506;5.486;2024-01-27T07:26:20;2.90;78.10
78876;DHT22;68253;52.506;5.486;2024-01-27T07:28:47;2.90;78.10
78876;DHT22;68253;52.506;5.486;2024-01-27T07:31:13;2.90;78.10
78876;DHT22;68253;52.506;5.486;2024-01-27T07:33:40;2.90;78.10
78876;DHT22;68253;52.506;5.486;2024-01-27T07:36:06;2.90;78.20
78876;DHT22;68253;52.506;5.486;2024-01-27T07:38:32;2.90;78.10
78876;DHT22;68253;52.506;5.486;2024-01-27T07:40:58;2.90;78.10
78876;DHT22;68253;52.506;5.486;2024-01-27T07:43:25;2.90;78.10
78876;DHT22;68253;52.506;5.486;2024-01-27T07:45:52;2.90;78.00
78876;DHT22;68253;52.506;5.486;2024-01-27T07:48:19;2.90;78.00
78876;DHT22;68253;52.506;5.486;2024-01-27T07:50:45;3.00;78.00
78876;DHT22;68253;52.506;5.486;2024-01-27T07:53:17;3.00;77.90
78876;DHT22;68253;52.506;5.486;2024-01-27T07:55:44;3.00;77.90
78876;DHT22;68253;52.506;5.486;2024-01-27T07:58:10;3.00;77.90
78876;DHT22;68253;52.506;5.486;2024-01-27T08:00:36;3.10;77.80
78876;DHT22;68253;52.506;5.486;2024-01-27T08:03:02;3.10;77.80
78876;DHT22;68253;52.506;5.486;2024-01-27T08:05:29;3.10;77.70
78876;DHT22;68253;52.506;5.486;2024-01-27T08:07:55;3.10;77.60
78876;DHT22;68253;52.506;5.486;2024-01-27T08:10:21;3.10;77.50
78876;DHT22;68253;52.506;5.486;2024-01-27T08:12:48;3.20;77.30
78876;DHT22;68253;52.506;5.486;2024-01-27T08:15:14;3.30;77.30
78876;DHT22;68253;52.506;5.486;2024-01-27T08:17:40;3.30;77.20
78876;DHT22;68253;52.506;5.486;2024-01-27T08:20:07;3.40;77.10
78876;DHT22;68253;52.506;5.486;2024-01-27T08:22:34;3.50;77.00
78876;DHT22;68253;52.506;5.486;2024-01-27T08:25:00;3.50;76.70
78876;DHT22;68253;52.506;5.486;2024-01-27T08:27:26;3.60;76.70
78876;DHT22;68253;52.506;5.486;2024-01-27T08:29:52;3.70;76.60
78876;DHT22;68253;52.506;5.486;2024-01-27T08:32:18;3.80;76.60
78876;DHT22;68253;52.506;5.486;2024-01-27T08:34:45;3.90;76.30
78876;DHT22;68253;52.506;5.486;2024-01-27T08:37:19;3.90;76.20
78876;DHT22;68253;52.506;5.486;2024-01-27T08:39:45;4.00;76.00
78876;DHT22;68253;52.506;5.486;2024-01-27T08:42:11;4.10;75.50
78876;DHT22;68253;52.506;5.486;2024-01-27T08:44:38;4.20;75.40
78876;DHT22;68253;52.506;5.486;2024-01-27T08:47:05;4.20;75.40
78876;DHT22;68253;52.506;5.486;2024-01-27T08:49:31;4.20;75.30
78876;DHT22;68253;52.506;5.486;2024-01-27T08:51:57;4.20;75.10
78876;DHT22;68253;52.506;5.486;2024-01-27T08:54:23;4.30;75.10
78876;DHT22;68253;52.506;5.486;2024-01-27T08:56:50;4.30;75.00
78876;DHT22;68253;52.506;5.486;2024-01-27T08:59:16;4.40;75.00
78876;DHT22;68253;52.506;5.486;2024-01-27T09:01:42;4.40;74.70
78876;DHT22;68253;52.506;5.486;2024-01-27T09:04:08;4.40;74.70
78876;DHT22;68253;52.506;5.486;2024-01-27T09:06:35;4.50;74.70
78876;DHT22;68253;52.506;5.486;2024-01-27T09:09:01;4.50;74.70
78876;DHT22;68253;52.506;5.486;2024-01-27T09:11:28;4.60;74.20
78876;DHT22;68253;52.506;5.486;2024-01-27T09:13:56;4.60;74.10
78876;DHT22;68253;52.506;5.486;2024-01-27T09:16:22;4.50;74.10
78876;DHT22;68253;52.506;5.486;2024-01-27T09:18:49;4.50;74.60
78876;DHT22;68253;52.506;5.486;2024-01-27T09:21:16;5.10;76.50
78876;DHT22;68253;52.506;5.486;2024-01-27T09:23:46;6.10;75.20
78876;DHT22;68253;52.506;5.486;2024-01-27T09:26:13;7.10;71.90
78876;DHT22;68253;52.506;5.486;2024-01-27T09:28:41;8.00;70.00
78876;DHT22;68253;52.506;5.486;2024-01-27T09:31:11;8.90;69.00
78876;DHT22;68253;52.506;5.486;2024-01-27T09:33:37;9.90;67.50
78876;DHT22;68253;52.506;5.486;2024-01-27T09:36:04;10.70;64.10
78876;DHT22;68253;52.506;5.486;2024-01-27T09:38:30;11.30;62.40
78876;DHT22;68253;52.506;5.486;2024-01-27T09:40:56;11.80;60.50
78876;DHT22;68253;52.506;5.486;2024-01-27T09:43:25;12.20;59.00
78876;DHT22;68253;52.506;5.486;2024-01-27T09:45:51;12.50;58.60
78876;DHT22;68253;52.506;5.486;2024-01-27T09:48:17;12.80;57.50
78876;DHT22;68253;52.506;5.486;2024-01-27T09:50:47;13.20;57.50
78876;DHT22;68253;52.506;5.486;2024-01-27T09:53:14;13.70;57.10
78876;DHT22;68253;52.506;5.486;2024-01-27T09:55:40;14.10;55.50
78876;DHT22;68253;52.506;5.486;2024-01-27T09:58:08;14.50;55.50
78876;DHT22;68253;52.506;5.486;2024-01-27T10:00:35;14.80;54.60
78876;DHT22;68253;52.506;5.486;2024-01-27T10:03:04;15.00;53.50
78876;DHT22;68253;52.506;5.486;2024-01-27T10:05:32;15.00;53.00
78876;DHT22;68253;52.506;5.486;2024-01-27T10:07:58;14.90;53.00
78876;DHT22;68253;52.506;5.486;2024-01-27T10:10:24;14.70;52.90
78876;DHT22;68253;52.506;5.486;2024-01-27T10:12:52;14.10;53.40
78876;DHT22;68253;52.506;5.486;2024-01-27T10:15:22;13.50;54.20
78876;DHT22;68253;52.506;5.486;2024-01-27T10:17:49;13.00;54.70
78876;DHT22;68253;52.506;5.486;2024-01-27T10:20:15;12.30;55.50
78876;DHT22;68253;52.506;5.486;2024-01-27T10:22:45;11.50;56.70
78876;DHT22;68253;52.506;5.486;2024-01-27T10:25:11;11.00;57.90
78876;DHT22;68253;52.506;5.486;2024-01-27T10:27:38;10.40;59.00
78876;DHT22;68253;52.506;5.486;2024-01-27T10:30:05;10.30;60.20
78876;DHT22;68253;52.506;5.486;2024-01-27T10:32:33;10.30;60.20
78876;DHT22;68253;52.506;5.486;2024-01-27T10:35:04;10.60;60.40
78876;DHT22;68253;52.506;5.486;2024-01-27T10:37:30;10.90;59.50
78876;DHT22;68253;52.506;5.486;2024-01-27T10:40:01;11.30;59.50
78876;DHT22;68253;52.506;5.486;2024-01-27T10:42:29;11.90;58.20
78876;DHT22;68253;52.506;5.486;2024-01-27T10:44:58;12.50;57.20
78876;DHT22;68253;52.506;5.486;2024-01-27T10:47:28;13.30;55.70
78876;DHT22;68253;52.506;5.486;2024-01-27T10:49:56;13.70;54.80
78876;DHT22;68253;52.506;5.486;2024-01-27T10:52:24;14.10;53.90
78876;DHT22;68253;52.506;5.486;2024-01-27T10:55:04;14.50;53.70
78876;DHT22;68253;52.506;5.486;2024-01-27T10:57:33;15.00;52.50
78876;DHT22;68253;52.506;5.486;2024-01-27T11:00:01;14.90;52.20
78876;DHT22;68253;52.506;5.486;2024-01-27T11:02:33;14.50;52.60
78876;DHT22;68253;52.506;5.486;2024-01-27T11:05:02;14.00;52.90
78876;DHT22;68253;52.506;5.486;2024-01-27T11:07:33;13.70;54.00
78876;DHT22;68253;52.506;5.486;2024-01-27T11:09:59;13.70;54.00
78876;DHT22;68253;52.506;5.486;2024-01-27T11:12:26;13.30;54.00
78876;DHT22;68253;52.506;5.486;2024-01-27T11:14:53;12.90;54.50
78876;DHT22;68253;52.506;5.486;2024-01-27T11:17:19;12.50;55.50
78876;DHT22;68253;52.506;5.486;2024-01-27T11:19:46;12.50;56.30
78876;DHT22;68253;52.506;5.486;2024-01-27T11:24:51;12.50;55.50
78876;DHT22;68253;52.506;5.486;2024-01-27T11:27:17;12.10;56.30
78876;DHT22;68253;52.506;5.486;2024-01-27T11:29:49;11.70;56.90
78876;DHT22;68253;52.506;5.486;2024-01-27T11:32:15;11.40;57.30
78876;DHT22;68253;52.506;5.486;2024-01-27T11:34:43;11.00;57.80
78876;DHT22;68253;52.506;5.486;2024-01-27T11:37:14;10.90;58.70
78876;DHT22;68253;52.506;5.486;2024-01-27T11:39:40;11.10;58.50
78876;DHT22;68253;52.506;5.486;2024-01-27T11:42:11;11.30;57.70
78876;DHT22;68253;52.506;5.486;2024-01-27T11:44:41;11.20;57.60
78876;DHT22;68253;52.506;5.486;2024-01-27T11:47:18;11.00;58.40
78876;DHT22;68253;52.506;5.486;2024-01-27T11:49:51;11.30;57.90
78876;DHT22;68253;52.506;5.486;2024-01-27T11:52:19;11.30;57.50
78876;DHT22;68253;52.506;5.486;2024-01-27T11:54:46;11.00;57.50
78876;DHT22;68253;52.506;5.486;2024-01-27T11:57:12;10.80;58.50
78876;DHT22;68253;52.506;5.486;2024-01-27T11:59:38;10.70;58.80
78876;DHT22;68253;52.506;5.486;2024-01-27T12:02:04;10.80;58.20
78876;DHT22;68253;52.506;5.486;2024-01-27T12:04:31;10.90;58.10
78876;DHT22;68253;52.506;5.486;2024-01-27T12:06:58;11.10;57.60
78876;DHT22;68253;52.506;5.486;2024-01-27T12:09:24;11.40;57.60
78876;DHT22;68253;52.506;5.486;2024-01-27T12:11:50;11.50;56.70
78876;DHT22;68253;52.506;5.486;2024-01-27T12:14:17;11.40;57.10
78876;DHT22;68253;52.506;5.486;2024-01-27T12:16:43;11.40;57.30
78876;DHT22;68253;52.506;5.486;2024-01-27T12:19:10;11.40;57.70
78876;DHT22;68253;52.506;5.486;2024-01-27T12:21:37;11.40;57.40
78876;DHT22;68253;52.506;5.486;2024-01-27T12:24:03;11.30;57.00
78876;DHT22;68253;52.506;5.486;2024-01-27T12:26:30;11.20;57.10
78876;DHT22;68253;52.506;5.486;2024-01-27T12:28:57;11.10;57.30
78876;DHT22;68253;52.506;5.486;2024-01-27T12:31:24;11.00;57.50
78876;DHT22;68253;52.506;5.486;2024-01-27T12:33:55;10.70;57.90
78876;DHT22;68253;52.506;5.486;2024-01-27T12:36:22;10.50;58.30
78876;DHT22;68253;52.506;5.486;2024-01-27T12:39:02;10.30;58.50
78876;DHT22;68253;52.506;5.486;2024-01-27T12:41:30;10.10;58.90
78876;DHT22;68253;52.506;5.486;2024-01-27T12:43:56;10.00;59.30
78876;DHT22;68253;52.506;5.486;2024-01-27T12:46:22;10.20;59.10
78876;DHT22;68253;52.506;5.486;2024-01-27T12:48:48;10.90;58.50
78876;DHT22;68253;52.506;5.486;2024-01-27T12:51:14;11.90;56.40
78876;DHT22;68253;52.506;5.486;2024-01-27T12:53:42;12.90;54.90
78876;DHT22;68253;52.506;5.486;2024-01-27T12:56:14;13.60;53.80
78876;DHT22;68253;52.506;5.486;2024-01-27T12:58:41;14.50;53.30
78876;DHT22;68253;52.506;5.486;2024-01-27T13:01:08;15.50;51.30
78876;DHT22;68253;52.506;5.486;2024-01-27T13:03:35;16.20;50.10
78876;DHT22;68253;52.506;5.486;2024-01-27T13:06:01;16.60;49.30
78876;DHT22;68253;52.506;5.486;2024-01-27T13:08:28;16.90;48.70
78876;DHT22;68253;52.506;5.486;2024-01-27T13:10:54;17.20;48.80
78876;DHT22;68253;52.506;5.486;2024-01-27T13:13:20;17.80;47.90
78876;DHT22;68253;52.506;5.486;2024-01-27T13:15:47;18.30;47.80
78876;DHT22;68253;52.506;5.486;2024-01-27T13:18:13;19.00;47.10
78876;DHT22;68253;52.506;5.486;2024-01-27T13:20:39;19.70;46.00
78876;DHT22;68253;52.506;5.486;2024-01-27T13:23:08;20.10;45.10
78876;DHT22;68253;52.506;5.486;2024-01-27T13:25:34;20.00;44.90
78876;DHT22;68253;52.506;5.486;2024-01-27T13:28:00;19.90;44.60
78876;DHT22;68253;52.506;5.486;2024-01-27T13:30:26;19.90;45.10
78876;DHT22;68253;52.506;5.486;2024-01-27T13:32:54;20.00;44.60
78876;DHT22;68253;52.506;5.486;2024-01-27T13:35:20;19.90;45.00
78876;DHT22;68253;52.506;5.486;2024-01-27T13:37:46;20.00;44.80
78876;DHT22;68253;52.506;5.486;2024-01-27T13:40:14;19.90;44.50
78876;DHT22;68253;52.506;5.486;2024-01-27T13:42:40;19.60;44.60
78876;DHT22;68253;52.506;5.486;2024-01-27T13:45:06;19.30;44.90
78876;DHT22;68253;52.506;5.486;2024-01-27T13:47:34;18.90;45.00
78876;DHT22;68253;52.506;5.486;2024-01-27T13:50:00;18.40;45.70
78876;DHT22;68253;52.506;5.486;2024-01-27T13:52:27;17.90;45.90
78876;DHT22;68253;52.506;5.486;2024-01-27T13:54:55;17.40;46.60
78876;DHT22;68253;52.506;5.486;2024-01-27T13:57:21;16.70;47.30
78876;DHT22;68253;52.506;5.486;2024-01-27T13:59:47;16.20;47.90
78876;DHT22;68253;52.506;5.486;2024-01-27T14:02:13;16.20;48.50
78876;DHT22;68253;52.506;5.486;2024-01-27T14:04:40;16.30;48.10
78876;DHT22;68253;52.506;5.486;2024-01-27T14:07:06;16.40;48.20
78876;DHT22;68253;52.506;5.486;2024-01-27T14:09:34;16.60;47.90
78876;DHT22;68253;52.506;5.486;2024-01-27T14:12:00;16.50;47.70
78876;DHT22;68253;52.506;5.486;2024-01-27T14:14:27;16.10;48.20
78876;DHT22;68253;52.506;5.486;2024-01-27T14:16:54;16.00;48.40
78876;DHT22;68253;52.506;5.486;2024-01-27T14:19:20;15.80;48.70
78876;DHT22;68253;52.506;5.486;2024-01-27T14:21:46;15.60;49.00
78876;DHT22;68253;52.506;5.486;2024-01-27T14:24:12;15.20;49.30
78876;DHT22;68253;52.506;5.486;2024-01-27T14:26:38;14.60;50.10
78876;DHT22;68253;52.506;5.486;2024-01-27T14:29:04;14.00;50.80
78876;DHT22;68253;52.506;5.486;2024-01-27T14:31:30;13.50;51.50
78876;DHT22;68253;52.506;5.486;2024-01-27T14:33:59;13.10;52.20
78876;DHT22;68253;52.506;5.486;2024-01-27T14:36:25;12.60;52.90
78876;DHT22;68253;52.506;5.486;2024-01-27T14:38:52;12.20;53.80
78876;DHT22;68253;52.506;5.486;2024-01-27T14:41:18;11.90;54.40
78876;DHT22;68253;52.506;5.486;2024-01-27T14:43:44;11.50;55.00
78876;DHT22;68253;52.506;5.486;2024-01-27T14:46:10;11.10;55.50
78876;DHT22;68253;52.506;5.486;2024-01-27T14:48:36;10.80;56.20
78876;DHT22;68253;52.506;5.486;2024-01-27T14:51:03;10.60;56.80
78876;DHT22;68253;52.506;5.486;2024-01-27T14:53:29;10.40;57.20
78876;DHT22;68253;52.506;5.486;2024-01-27T14:55:56;10.20;57.50
78876;DHT22;68253;52.506;5.486;2024-01-27T14:58:22;10.00;57.80
78876;DHT22;68253;52.506;5.486;2024-01-27T15:00:49;9.80;58.30
78876;DHT22;68253;52.506;5.486;2024-01-27T15:03:19;9.60;58.80
78876;DHT22;68253;52.506;5.486;2024-01-27T15:05:46;9.50;59.20
78876;DHT22;68253;52.506;5.486;2024-01-27T15:08:12;9.30;59.80
78876;DHT22;68253;52.506;5.486;2024-01-27T15:10:38;9.10;60.10
78876;DHT22;68253;52.506;5.486;2024-01-27T15:13:06;8.90;60.30
78876;DHT22;68253;52.506;5.486;2024-01-27T15:15:32;8.70;60.60
78876;DHT22;68253;52.506;5.486;2024-01-27T15:17:58;8.60;60.90
78876;DHT22;68253;52.506;5.486;2024-01-27T15:20:26;8.40;61.40
78876;DHT22;68253;52.506;5.486;2024-01-27T15:22:53;8.30;61.70
78876;DHT22;68253;52.506;5.486;2024-01-27T15:25:20;8.20;62.00
78876;DHT22;68253;52.506;5.486;2024-01-27T15:27:48;8.10;62.10
78876;DHT22;68253;52.506;5.486;2024-01-27T15:30:17;8.00;62.20
78876;DHT22;68253;52.506;5.486;2024-01-27T15:32:46;7.90;62.70
78876;DHT22;68253;52.506;5.486;2024-01-27T15:35:12;7.80;63.00
78876;DHT22;68253;52.506;5.486;2024-01-27T15:37:39;7.80;62.90
78876;DHT22;68253;52.506;5.486;2024-01-27T15:40:06;7.80;63.20
78876;DHT22;68253;52.506;5.486;2024-01-27T15:42:32;7.80;63.50